createdAt,value
2016-12-02T00:00:49.601Z,100883
2016-12-02T00:01:49.131Z,100874
2016-12-02T00:02:49.196Z,100883
2016-12-02T00:03:49.289Z,100885
2016-12-02T00:04:47.964Z,100888
2016-12-02T00:05:48.072Z,100882
2016-12-02T00:06:48.076Z,100883
2016-12-02T00:07:49.432Z,100875
2016-12-02T00:08:48.072Z,100878
2016-12-02T00:09:48.231Z,100880
2016-12-02T00:10:48.251Z,100873
2016-12-02T00:11:48.261Z,100878
2016-12-02T00:12:48.375Z,100872
2016-12-02T00:13:49.705Z,100880
2016-12-02T00:14:49.701Z,100871
2016-12-02T00:15:49.817Z,100880
2016-12-02T00:16:48.420Z,100878
2016-12-02T00:17:48.496Z,100878
2016-12-02T00:18:48.615Z,100873
2016-12-02T00:19:50.001Z,100880
2016-12-02T00:20:50.011Z,100872
2016-12-02T00:21:50.019Z,100877
2016-12-02T00:22:50.072Z,100880
2016-12-02T00:23:50.116Z,100874
2016-12-02T00:24:50.181Z,100872
2016-12-02T00:25:48.884Z,100868
2016-12-02T00:26:50.334Z,100869
2016-12-02T00:27:49.038Z,100863
2016-12-02T00:28:49.108Z,100863
2016-12-02T00:29:49.185Z,100857
2016-12-02T00:30:49.268Z,100858
2016-12-02T00:31:50.649Z,100855
2016-12-02T00:32:50.797Z,100859
2016-12-02T00:33:50.847Z,100855
2016-12-02T00:34:50.841Z,100860
2016-12-02T00:35:50.944Z,100863
2016-12-02T00:36:50.944Z,100864
2016-12-02T00:37:49.674Z,100861
2016-12-02T00:38:51.012Z,100863
2016-12-02T00:39:51.064Z,100856
2016-12-02T00:40:51.095Z,100859
2016-12-02T00:41:49.886Z,100867
2016-12-02T00:42:51.239Z,100862
2016-12-02T00:44:51.375Z,100859
2016-12-02T00:45:50.024Z,100858
2016-12-02T00:46:50.135Z,100859
2016-12-02T00:47:50.233Z,100859
2016-12-02T00:48:50.276Z,100855
2016-12-02T00:49:51.685Z,100858
2016-12-02T00:50:51.689Z,100861
2016-12-02T00:51:50.347Z,100853
2016-12-02T00:52:50.428Z,100854
2016-12-02T00:53:51.738Z,100860
2016-12-02T00:54:50.400Z,100848
2016-12-02T00:55:51.874Z,100858
2016-12-02T00:56:51.871Z,100849
2016-12-02T00:57:50.533Z,100853
2016-12-02T00:58:51.962Z,100849
2016-12-02T00:59:50.663Z,100849
2016-12-02T01:00:50.653Z,100857
2016-12-02T01:01:50.708Z,100853
2016-12-02T01:02:52.137Z,100854
2016-12-02T01:03:52.199Z,100853
2016-12-02T01:04:50.926Z,100852
2016-12-02T01:05:50.994Z,100854
2016-12-02T01:06:52.332Z,100847
2016-12-02T01:07:51.013Z,100855
2016-12-02T01:08:51.024Z,100847
2016-12-02T01:09:52.498Z,100854
2016-12-02T01:10:51.115Z,100853
2016-12-02T01:11:51.231Z,100853
2016-12-02T01:12:52.647Z,100851
2016-12-02T01:13:52.759Z,100855
2016-12-02T01:14:51.396Z,100851
2016-12-02T01:15:52.762Z,100857
2016-12-02T01:16:52.806Z,100855
2016-12-02T01:17:51.547Z,100849
2016-12-02T01:18:51.553Z,100853
2016-12-02T01:19:51.583Z,100854
2016-12-02T01:20:51.669Z,100853
2016-12-02T01:21:53.134Z,100855
2016-12-02T01:22:51.846Z,100857
2016-12-02T01:23:51.945Z,100855
2016-12-02T01:24:51.969Z,100847
2016-12-02T01:25:52.063Z,100855
2016-12-02T01:26:53.428Z,100854
2016-12-02T01:27:52.088Z,100857
2016-12-02T01:28:52.170Z,100857
2016-12-02T01:29:53.514Z,100848
2016-12-02T01:30:52.203Z,100855
2016-12-02T01:31:52.278Z,100860
2016-12-02T01:32:53.712Z,100857
2016-12-02T01:33:53.773Z,100857
2016-12-02T01:34:53.781Z,100861
2016-12-02T01:35:53.823Z,100859
2016-12-02T01:36:53.878Z,100853
2016-12-02T01:37:53.860Z,100856
2016-12-02T01:38:53.870Z,100858
2016-12-02T01:39:53.940Z,100852
2016-12-02T01:40:53.983Z,100858
2016-12-02T01:41:54.068Z,100853
2016-12-02T01:42:52.766Z,100858
2016-12-02T01:43:52.787Z,100854
2016-12-02T01:44:54.178Z,100857
2016-12-02T01:45:54.217Z,100853
2016-12-02T01:46:52.927Z,100859
2016-12-02T01:47:54.265Z,100859
2016-12-02T01:48:54.270Z,100856
2016-12-02T01:49:52.974Z,100857
2016-12-02T01:50:54.347Z,100855
2016-12-02T01:51:53.016Z,100849
2016-12-02T01:52:53.129Z,100857
2016-12-02T01:53:54.540Z,100852
2016-12-02T01:54:54.485Z,100853
2016-12-02T01:55:53.146Z,100855
2016-12-02T01:56:53.240Z,100851
2016-12-02T01:57:53.230Z,100852
2016-12-02T01:58:54.685Z,100852
2016-12-02T01:59:54.754Z,100853
2016-12-02T02:00:54.852Z,100854
2016-12-02T02:01:54.842Z,100859
2016-12-02T02:02:53.573Z,100854
2016-12-02T02:03:53.630Z,100837
2016-12-02T02:04:53.706Z,100844
2016-12-02T02:05:53.680Z,100834
2016-12-02T02:06:53.757Z,100846
2016-12-02T02:07:55.254Z,100838
2016-12-02T02:08:53.922Z,100842
2016-12-02T02:09:53.980Z,100844
2016-12-02T02:10:54.085Z,100842
2016-12-02T02:11:55.454Z,100846
2016-12-02T02:12:54.146Z,100844
2016-12-02T02:13:54.241Z,100845
2016-12-02T02:14:54.375Z,100846
2016-12-02T02:15:55.747Z,100849
2016-12-02T02:16:55.790Z,100847
2016-12-02T02:17:54.486Z,100846
2016-12-02T02:18:55.852Z,100843
2016-12-02T02:19:55.951Z,100839
2016-12-02T02:20:55.993Z,100845
2016-12-02T02:21:56.111Z,100843
2016-12-02T02:22:54.845Z,100835
2016-12-02T02:23:54.906Z,100843
2016-12-02T02:24:55.033Z,100829
2016-12-02T02:25:55.085Z,100840
2016-12-02T02:26:56.481Z,100830
2016-12-02T02:27:55.198Z,100831
2016-12-02T02:28:55.224Z,100828
2016-12-02T02:29:56.679Z,100835
2016-12-02T02:30:55.418Z,100826
2016-12-02T02:31:56.797Z,100818
2016-12-02T02:32:55.573Z,100821
2016-12-02T02:33:55.589Z,100823
2016-12-02T02:34:56.937Z,100826
2016-12-02T02:35:57.008Z,100822
2016-12-02T02:36:57.034Z,100815
2016-12-02T02:37:55.705Z,100830
2016-12-02T02:38:57.163Z,100821
2016-12-02T02:39:57.241Z,100824
2016-12-02T02:40:57.337Z,100824
2016-12-02T02:41:57.374Z,100827
2016-12-02T02:42:57.390Z,100827
2016-12-02T02:43:56.129Z,100816
2016-12-02T02:44:57.473Z,100817
2016-12-02T02:45:56.197Z,100828
2016-12-02T02:46:56.211Z,100826
2016-12-02T02:47:56.300Z,100827
2016-12-02T02:48:56.344Z,100816
2016-12-02T02:49:57.690Z,100826
2016-12-02T02:50:57.860Z,100824
2016-12-02T02:51:57.761Z,100824
2016-12-02T02:52:57.955Z,100829
2016-12-02T02:53:57.935Z,100828
2016-12-02T02:54:57.945Z,100825
2016-12-02T02:55:58.149Z,100824
2016-12-02T02:56:58.145Z,100826
2016-12-02T02:57:56.771Z,100826
2016-12-02T02:58:56.874Z,100831
2016-12-02T02:59:58.185Z,100815
2016-12-02T03:00:56.978Z,100825
2016-12-02T03:01:56.973Z,100827
2016-12-02T03:02:58.373Z,100821
2016-12-02T03:03:58.389Z,100813
2016-12-02T03:04:57.018Z,100821
2016-12-02T03:05:57.078Z,100823
2016-12-02T03:06:57.210Z,100822
2016-12-02T03:07:57.191Z,100824
2016-12-02T03:08:58.620Z,100823
2016-12-02T03:09:57.385Z,100820
2016-12-02T03:10:58.780Z,100824
2016-12-02T03:11:58.835Z,100821
2016-12-02T03:12:58.891Z,100825
2016-12-02T03:13:57.589Z,100829
2016-12-02T03:14:57.628Z,100818
2016-12-02T03:15:57.705Z,100824
2016-12-02T03:16:59.064Z,100817
2016-12-02T03:17:57.700Z,100820
2016-12-02T03:18:59.049Z,100823
2016-12-02T03:19:57.706Z,100817
2016-12-02T03:20:59.179Z,100816
2016-12-02T03:21:59.280Z,100818
2016-12-02T03:22:59.330Z,100819
2016-12-02T03:23:59.398Z,100819
2016-12-02T03:24:59.406Z,100817
2016-12-02T03:25:59.446Z,100817
2016-12-02T03:26:58.234Z,100816
2016-12-02T03:27:59.537Z,100817
2016-12-02T03:28:59.619Z,100817
2016-12-02T03:29:58.404Z,100816
2016-12-02T03:30:59.831Z,100818
2016-12-02T03:31:58.607Z,100817
2016-12-02T03:32:59.332Z,100817
2016-12-02T03:34:00.067Z,100818
2016-12-02T03:35:01.291Z,100819
2016-12-02T03:35:59.918Z,100820
2016-12-02T03:37:01.720Z,100818
2016-12-02T03:37:59.999Z,100829
2016-12-02T03:39:00.165Z,100833
2016-12-02T03:39:58.902Z,100829
2016-12-02T03:41:00.978Z,100826
2016-12-02T03:41:58.913Z,100831
2016-12-02T03:43:00.333Z,100826
2016-12-02T03:44:01.073Z,100815
2016-12-02T03:45:00.284Z,100824
2016-12-02T03:46:00.277Z,100826
2016-12-02T03:46:59.045Z,100823
2016-12-02T03:48:00.358Z,100817
2016-12-02T03:49:00.472Z,100818
2016-12-02T03:49:59.117Z,100818
2016-12-02T03:50:59.156Z,100818
2016-12-02T03:51:59.210Z,100817
2016-12-02T03:53:00.589Z,100817
2016-12-02T03:53:59.464Z,100824
2016-12-02T03:54:59.261Z,100823
2016-12-02T03:56:00.723Z,100818
2016-12-02T03:56:59.352Z,100820
2016-12-02T03:58:00.813Z,100822
2016-12-02T03:59:00.810Z,100826
2016-12-02T03:59:59.604Z,100821
2016-12-02T04:01:01.011Z,100826
2016-12-02T04:02:01.979Z,100822
2016-12-02T04:02:59.788Z,100822
2016-12-02T04:03:59.930Z,100825
2016-12-02T04:04:59.966Z,100827
2016-12-02T04:05:59.876Z,100822
2016-12-02T04:07:00.025Z,100823
2016-12-02T04:08:01.538Z,100818
2016-12-02T04:09:00.077Z,100816
2016-12-02T04:10:00.116Z,100817
2016-12-02T04:11:00.120Z,100818
2016-12-02T04:12:01.500Z,100814
2016-12-02T04:13:01.530Z,100817
2016-12-02T04:14:00.223Z,100822
2016-12-02T04:15:01.681Z,100820
2016-12-02T04:16:00.338Z,100815
2016-12-02T04:17:01.578Z,100820
2016-12-02T04:18:01.647Z,100829
2016-12-02T04:19:01.649Z,100824
2016-12-02T04:20:01.740Z,100823
2016-12-02T04:21:01.800Z,100829
2016-12-02T04:22:01.875Z,100837
2016-12-02T04:23:00.553Z,100828
2016-12-02T04:24:00.694Z,100832
2016-12-02T04:25:02.055Z,100829
2016-12-02T04:26:02.052Z,100835
2016-12-02T04:27:00.793Z,100831
2016-12-02T04:28:00.804Z,100826
2016-12-02T04:29:00.730Z,100827
2016-12-02T04:30:02.132Z,100829
2016-12-02T04:31:00.854Z,100810
2016-12-02T04:32:02.215Z,100824
2016-12-02T04:33:00.884Z,100827
2016-12-02T04:34:00.936Z,100829
2016-12-02T04:35:02.418Z,100825
2016-12-02T04:36:02.481Z,100824
2016-12-02T04:37:02.470Z,100825
2016-12-02T04:38:02.555Z,100829
2016-12-02T04:39:01.347Z,100825
2016-12-02T04:40:02.729Z,100826
2016-12-02T04:41:01.379Z,100826
2016-12-02T04:42:01.455Z,100827
2016-12-02T04:43:02.850Z,100816
2016-12-02T04:44:01.583Z,100828
2016-12-02T04:45:01.570Z,100821
2016-12-02T04:46:01.654Z,100826
2016-12-02T04:47:02.358Z,100825
2016-12-02T04:48:03.052Z,100827
2016-12-02T04:49:03.128Z,100829
2016-12-02T04:50:03.147Z,100828
2016-12-02T04:51:03.243Z,100830
2016-12-02T04:52:03.369Z,100830
2016-12-02T04:53:03.435Z,100830
2016-12-02T04:54:03.466Z,100831
2016-12-02T04:55:03.513Z,100821
2016-12-02T04:56:02.182Z,100825
2016-12-02T04:57:03.578Z,100822
2016-12-02T04:58:02.344Z,100828
2016-12-02T04:59:02.317Z,100825
2016-12-02T05:00:03.713Z,100835
2016-12-02T05:01:03.796Z,100830
2016-12-02T05:02:03.860Z,100834
2016-12-02T05:03:03.994Z,100837
2016-12-02T05:04:02.768Z,100834
2016-12-02T05:05:04.123Z,100835
2016-12-02T05:06:04.192Z,100835
2016-12-02T05:07:04.170Z,100829
2016-12-02T05:08:04.261Z,100832
2016-12-02T05:09:04.342Z,100834
2016-12-02T05:10:02.979Z,100830
2016-12-02T05:11:04.379Z,100827
2016-12-02T05:12:04.369Z,100827
2016-12-02T05:13:03.104Z,100828
2016-12-02T05:14:03.123Z,100830
2016-12-02T05:15:03.175Z,100833
2016-12-02T05:16:03.237Z,100829
2016-12-02T05:17:04.650Z,100829
2016-12-02T05:18:03.304Z,100834
2016-12-02T05:19:03.356Z,100834
2016-12-02T05:20:03.384Z,100833
2016-12-02T05:21:04.877Z,100835
2016-12-02T05:22:04.901Z,100835
2016-12-02T05:23:04.907Z,100830
2016-12-02T05:24:04.912Z,100835
2016-12-02T05:25:03.643Z,100828
2016-12-02T05:26:03.713Z,100828
2016-12-02T05:27:03.794Z,100815
2016-12-02T05:28:03.861Z,100813
2016-12-02T05:29:05.287Z,100808
2016-12-02T05:30:04.000Z,100816
2016-12-02T05:31:05.390Z,100819
2016-12-02T05:32:05.484Z,100819
2016-12-02T05:33:05.918Z,100813
2016-12-02T05:34:05.653Z,100817
2016-12-02T05:35:05.673Z,100814
2016-12-02T05:36:05.693Z,100816
2016-12-02T05:37:04.416Z,100816
2016-12-02T05:38:05.777Z,100813
2016-12-02T05:39:04.416Z,100808
2016-12-02T05:40:05.872Z,100813
2016-12-02T05:41:04.587Z,100805
2016-12-02T05:42:04.643Z,100816
2016-12-02T05:43:04.738Z,100820
2016-12-02T05:44:04.751Z,100831
2016-12-02T05:45:04.889Z,100828
2016-12-02T05:46:04.942Z,100832
2016-12-02T05:47:04.921Z,100837
2016-12-02T05:48:06.321Z,100829
2016-12-02T05:49:05.075Z,100823
2016-12-02T05:50:05.028Z,100835
2016-12-02T05:51:06.483Z,100833
2016-12-02T05:52:06.423Z,100831
2016-12-02T05:53:06.504Z,100835
2016-12-02T05:54:06.556Z,100830
2016-12-02T05:55:06.626Z,100829
2016-12-02T05:56:06.744Z,100835
2016-12-02T05:57:05.468Z,100841
2016-12-02T05:58:05.502Z,100836
2016-12-02T05:59:06.847Z,100838
2016-12-02T06:00:06.852Z,100834
2016-12-02T06:01:06.913Z,100835
2016-12-02T06:02:05.558Z,100842
2016-12-02T06:03:06.978Z,100839
2016-12-02T06:04:07.069Z,100831
2016-12-02T06:05:07.050Z,100830
2016-12-02T06:06:07.146Z,100829
2016-12-02T06:07:07.206Z,100829
2016-12-02T06:08:07.343Z,100822
2016-12-02T06:09:06.006Z,100831
2016-12-02T06:10:07.357Z,100835
2016-12-02T06:11:07.480Z,100837
2016-12-02T06:12:06.232Z,100838
2016-12-02T06:13:07.685Z,100837
2016-12-02T06:14:06.750Z,100832
2016-12-02T06:15:07.748Z,100829
2016-12-02T06:16:06.446Z,100827
2016-12-02T06:17:06.478Z,100830
2016-12-02T06:18:07.908Z,100824
2016-12-02T06:19:06.662Z,100826
2016-12-02T06:20:06.643Z,100826
2016-12-02T06:21:08.012Z,100822
2016-12-02T06:22:08.045Z,100835
2016-12-02T06:23:06.675Z,100839
2016-12-02T06:24:06.752Z,100838
2016-12-02T06:25:08.137Z,100836
2016-12-02T06:26:08.230Z,100840
2016-12-02T06:27:08.919Z,100837
2016-12-02T06:28:08.278Z,100838
2016-12-02T06:29:06.989Z,100837
2016-12-02T06:30:08.309Z,100837
2016-12-02T06:31:08.407Z,100835
2016-12-02T06:32:08.553Z,100839
2016-12-02T06:33:07.184Z,100829
2016-12-02T06:34:07.249Z,100836
2016-12-02T06:35:07.352Z,100842
2016-12-02T06:36:07.288Z,100838
2016-12-02T06:37:08.660Z,100843
2016-12-02T06:38:07.466Z,100840
2016-12-02T06:39:08.807Z,100835
2016-12-02T06:40:08.893Z,100840
2016-12-02T06:41:08.926Z,100832
2016-12-02T06:42:07.557Z,100838
2016-12-02T06:43:07.661Z,100839
2016-12-02T06:44:07.705Z,100841
2016-12-02T06:45:07.635Z,100831
2016-12-02T06:46:07.740Z,100841
2016-12-02T06:47:09.111Z,100842
2016-12-02T06:48:07.771Z,100841
2016-12-02T06:49:07.754Z,100844
2016-12-02T06:50:09.211Z,100831
2016-12-02T06:51:09.238Z,100839
2016-12-02T06:52:09.288Z,100840
2016-12-02T06:53:09.351Z,100840
2016-12-02T06:54:08.099Z,100841
2016-12-02T06:55:08.169Z,100840
2016-12-02T06:56:10.210Z,100834
2016-12-02T06:57:09.540Z,100840
2016-12-02T06:58:08.329Z,100842
2016-12-02T06:59:08.298Z,100847
2016-12-02T07:00:09.058Z,100839
2016-12-02T07:01:09.791Z,100845
2016-12-02T07:02:08.465Z,100844
2016-12-02T07:03:08.510Z,100844
2016-12-02T07:04:08.631Z,100841
2016-12-02T07:05:08.663Z,100845
2016-12-02T07:06:10.057Z,100847
2016-12-02T07:07:08.756Z,100838
2016-12-02T07:08:10.097Z,100842
2016-12-02T07:09:08.777Z,100846
2016-12-02T07:10:10.195Z,100842
2016-12-02T07:11:08.868Z,100843
2016-12-02T07:12:10.225Z,100847
2016-12-02T07:13:10.344Z,100849
2016-12-02T07:14:09.111Z,100845
2016-12-02T07:15:09.153Z,100843
2016-12-02T07:16:10.499Z,100848
2016-12-02T07:17:11.387Z,100849
2016-12-02T07:18:09.211Z,100845
2016-12-02T07:19:10.602Z,100854
2016-12-02T07:20:10.644Z,100848
2016-12-02T07:21:09.327Z,100848
2016-12-02T07:22:10.812Z,100853
2016-12-02T07:23:09.469Z,100855
2016-12-02T07:24:10.859Z,100855
2016-12-02T07:25:09.518Z,100859
2016-12-02T07:26:09.583Z,100850
2016-12-02T07:27:10.879Z,100853
2016-12-02T07:28:10.968Z,100850
2016-12-02T07:29:09.729Z,100856
2016-12-02T07:30:09.848Z,100857
2016-12-02T07:31:11.856Z,100857
2016-12-02T07:32:10.632Z,100861
2016-12-02T07:33:11.267Z,100856
2016-12-02T07:34:09.958Z,100856
2016-12-02T07:35:11.397Z,100867
2016-12-02T07:36:10.100Z,100868
2016-12-02T07:37:10.183Z,100870
2016-12-02T07:38:10.240Z,100867
2016-12-02T07:39:11.554Z,100866
2016-12-02T07:40:10.265Z,100860
2016-12-02T07:41:10.303Z,100860
2016-12-02T07:42:10.348Z,100870
2016-12-02T07:43:10.400Z,100868
2016-12-02T07:44:11.765Z,100871
2016-12-02T07:45:10.446Z,100864
2016-12-02T07:46:10.501Z,100876
2016-12-02T07:47:11.980Z,100874
2016-12-02T07:48:12.005Z,100881
2016-12-02T07:49:12.685Z,100872
2016-12-02T07:50:10.794Z,100877
2016-12-02T07:51:12.208Z,100880
2016-12-02T07:52:10.963Z,100880
2016-12-02T07:53:11.020Z,100883
2016-12-02T07:54:11.005Z,100879
2016-12-02T07:55:11.724Z,100888
2016-12-02T07:56:11.131Z,100890
2016-12-02T07:57:12.475Z,100882
2016-12-02T07:58:12.536Z,100876
2016-12-02T07:59:12.621Z,100891
2016-12-02T08:00:12.666Z,100887
2016-12-02T08:01:12.663Z,100889
2016-12-02T08:02:12.019Z,100883
2016-12-02T08:03:12.806Z,100882
2016-12-02T08:04:12.847Z,100887
2016-12-02T08:05:11.612Z,100889
2016-12-02T08:06:13.597Z,100889
2016-12-02T08:07:13.688Z,100887
2016-12-02T08:08:13.067Z,100891
2016-12-02T08:09:13.146Z,100899
2016-12-02T08:10:11.804Z,100897
2016-12-02T08:11:11.950Z,100899
2016-12-02T08:12:11.988Z,100899
2016-12-02T08:13:13.306Z,100891
2016-12-02T08:14:12.672Z,100893
2016-12-02T08:15:13.882Z,100887
2016-12-02T08:16:12.088Z,100888
2016-12-02T08:17:12.117Z,100891
2016-12-02T08:18:13.503Z,100881
2016-12-02T08:19:12.298Z,100895
2016-12-02T08:20:13.813Z,100896
2016-12-02T08:21:13.797Z,100901
2016-12-02T08:22:12.463Z,100900
2016-12-02T08:23:12.542Z,100897
2016-12-02T08:24:13.884Z,100892
2016-12-02T08:25:13.924Z,100895
2016-12-02T08:26:12.584Z,100888
2016-12-02T08:27:12.538Z,100893
2016-12-02T08:28:14.115Z,100896
2016-12-02T08:29:12.730Z,100889
2016-12-02T08:30:12.848Z,100895
2016-12-02T08:31:14.191Z,100893
2016-12-02T08:32:14.397Z,100894
2016-12-02T08:33:13.109Z,100890
2016-12-02T08:34:15.187Z,100897
2016-12-02T08:35:13.241Z,100900
2016-12-02T08:36:14.774Z,100900
2016-12-02T08:37:13.979Z,100902
2016-12-02T08:38:13.587Z,100903
2016-12-02T08:39:14.805Z,100898
2016-12-02T08:40:13.499Z,100891
2016-12-02T08:41:14.921Z,100899
2016-12-02T08:42:13.555Z,100900
2016-12-02T08:43:13.513Z,100901
2016-12-02T08:44:14.304Z,100906
2016-12-02T08:45:14.913Z,100906
2016-12-02T08:46:14.517Z,100905
2016-12-02T08:47:16.525Z,100909
2016-12-02T08:48:15.134Z,100907
2016-12-02T08:49:13.931Z,100909
2016-12-02T08:50:15.305Z,100916
2016-12-02T08:51:15.333Z,100917
2016-12-02T08:52:15.376Z,100918
2016-12-02T08:53:15.857Z,100921
2016-12-02T08:54:15.401Z,100925
2016-12-02T08:55:14.068Z,100926
2016-12-02T08:56:14.102Z,100931
2016-12-02T08:57:15.569Z,100923
2016-12-02T08:58:15.623Z,100938
2016-12-02T08:59:15.638Z,100935
2016-12-02T09:00:14.358Z,100928
2016-12-02T09:01:14.411Z,100934
2016-12-02T09:02:15.856Z,100929
2016-12-02T09:03:15.119Z,100935
2016-12-02T09:04:16.528Z,100942
2016-12-02T09:05:15.200Z,100940
2016-12-02T09:06:16.017Z,100933
2016-12-02T09:07:16.900Z,100946
2016-12-02T09:08:16.229Z,100938
2016-12-02T09:09:16.256Z,100944
2016-12-02T09:10:16.247Z,100948
2016-12-02T09:11:15.666Z,100951
2016-12-02T09:12:16.361Z,100950
2016-12-02T09:13:15.138Z,100939
2016-12-02T09:14:16.569Z,100951
2016-12-02T09:15:17.158Z,100950
2016-12-02T09:16:15.994Z,100953
2016-12-02T09:17:16.627Z,100955
2016-12-02T09:18:16.719Z,100958
2016-12-02T09:19:18.104Z,100962
2016-12-02T09:20:16.807Z,100966
2016-12-02T09:21:17.398Z,100961
2016-12-02T09:22:15.479Z,100964
2016-12-02T09:23:17.564Z,100962
2016-12-02T09:24:15.615Z,100966
2016-12-02T09:25:15.602Z,100968
2016-12-02T09:26:17.954Z,100967
2016-12-02T09:27:15.748Z,100966
2016-12-02T09:28:17.039Z,100969
2016-12-02T09:29:15.751Z,100967
2016-12-02T09:30:17.187Z,100970
2016-12-02T09:31:17.258Z,100970
2016-12-02T09:32:15.979Z,100974
2016-12-02T09:33:17.406Z,100972
2016-12-02T09:34:17.365Z,100975
2016-12-02T09:35:16.001Z,100969
2016-12-02T09:36:17.380Z,100973
2016-12-02T09:37:16.789Z,100977
2016-12-02T09:38:17.294Z,100980
2016-12-02T09:39:16.210Z,100982
2016-12-02T09:40:17.577Z,100973
2016-12-02T09:41:17.653Z,100982
2016-12-02T09:42:17.624Z,100984
2016-12-02T09:43:18.632Z,100986
2016-12-02T09:44:17.754Z,100992
2016-12-02T09:45:17.846Z,100990
2016-12-02T09:46:17.064Z,100993
2016-12-02T09:47:16.592Z,100991
2016-12-02T09:48:16.616Z,100993
2016-12-02T09:49:17.457Z,100989
2016-12-02T09:50:18.183Z,100989
2016-12-02T09:51:18.212Z,100990
2016-12-02T09:52:16.920Z,100993
2016-12-02T09:53:16.906Z,100993
2016-12-02T09:54:19.059Z,100992
2016-12-02T09:55:17.107Z,100994
2016-12-02T09:56:17.236Z,100989
2016-12-02T09:57:17.217Z,100990
2016-12-02T09:58:19.135Z,100986
2016-12-02T09:59:18.655Z,100992
2016-12-02T10:00:17.315Z,100995
2016-12-02T10:01:18.175Z,100998
2016-12-02T10:02:20.435Z,101000
2016-12-02T10:03:18.850Z,100997
2016-12-02T10:04:18.084Z,101001
2016-12-02T10:05:18.975Z,101001
2016-12-02T10:06:19.044Z,100993
2016-12-02T10:07:18.501Z,101003
2016-12-02T10:08:19.868Z,101004
2016-12-02T10:09:22.491Z,101001
2016-12-02T10:10:19.269Z,101001
2016-12-02T10:11:19.433Z,101003
2016-12-02T10:12:18.675Z,101005
2016-12-02T10:13:18.167Z,101004
2016-12-02T10:14:18.928Z,101005
2016-12-02T10:15:18.793Z,101003
2016-12-02T10:16:20.171Z,100994
2016-12-02T10:17:20.174Z,101000
2016-12-02T10:18:19.020Z,100999
2016-12-02T10:19:20.365Z,101003
2016-12-02T10:20:18.512Z,101002
2016-12-02T10:21:21.098Z,101001
2016-12-02T10:22:20.609Z,101002
2016-12-02T10:23:18.649Z,100996
2016-12-02T10:24:19.427Z,101005
2016-12-02T10:25:20.882Z,101001
2016-12-02T10:26:25.103Z,101006
2016-12-02T10:27:20.069Z,101001
2016-12-02T10:28:22.285Z,100999
2016-12-02T10:29:21.461Z,100991
2016-12-02T10:30:19.602Z,100996
2016-12-02T10:31:21.854Z,101000
2016-12-02T10:36:25.282Z,101000
2016-12-02T10:37:24.858Z,100998
2016-12-02T10:38:27.968Z,101003
2016-12-02T10:39:26.536Z,101005
2016-12-02T10:40:26.189Z,101001
2016-12-02T10:41:24.901Z,101005
2016-12-02T10:42:29.591Z,100999
2016-12-02T10:43:24.978Z,100997
2016-12-02T10:44:25.040Z,100997
2016-12-02T10:45:23.730Z,100998
2016-12-02T10:46:23.842Z,100994
2016-12-02T10:47:25.788Z,100994
2016-12-02T10:48:23.934Z,100990
2016-12-02T10:49:25.173Z,100997
2016-12-02T10:50:25.315Z,100999
2016-12-02T10:51:26.578Z,100994
2016-12-02T10:52:30.112Z,100999
2016-12-02T10:53:24.201Z,100999
2016-12-02T10:54:25.650Z,100995
2016-12-02T10:55:26.209Z,100998
2016-12-02T10:56:24.393Z,100997
2016-12-02T10:57:26.359Z,101003
2016-12-02T10:58:25.854Z,101000
2016-12-02T10:59:24.561Z,100988
2016-12-02T11:00:27.939Z,101000
2016-12-02T11:01:27.933Z,101000
2016-12-02T11:02:27.247Z,101000
2016-12-02T11:03:26.670Z,100996
2016-12-02T11:04:26.104Z,101012
2016-12-02T11:05:27.464Z,101005
2016-12-02T11:06:25.583Z,101006
2016-12-02T11:07:27.405Z,101006
2016-12-02T11:08:26.983Z,101002
2016-12-02T11:09:29.540Z,101007
2016-12-02T11:10:26.273Z,101005
2016-12-02T11:11:27.468Z,101003
2016-12-02T11:12:27.841Z,101002
2016-12-02T11:13:28.678Z,100994
2016-12-02T11:14:25.234Z,101004
2016-12-02T11:15:38.297Z,101004
2016-12-02T11:16:32.289Z,101010
2016-12-02T11:17:31.932Z,101001
2016-12-02T11:18:31.193Z,101001
2016-12-02T11:19:34.038Z,101001
2016-12-02T11:20:34.747Z,101003
2016-12-02T11:21:27.769Z,101003
2016-12-02T11:22:27.325Z,101002
2016-12-02T11:23:26.837Z,101004
2016-12-02T11:24:28.222Z,101003
2016-12-02T11:25:27.045Z,100998
2016-12-02T11:26:26.438Z,100998
2016-12-02T11:27:27.096Z,100994
2016-12-02T11:28:25.978Z,100996
2016-12-02T11:29:28.014Z,101000
2016-12-02T11:30:25.806Z,100995
2016-12-02T11:31:25.922Z,100998
2016-12-02T11:32:26.496Z,101004
2016-12-02T11:33:27.898Z,101000
2016-12-02T11:34:26.752Z,101004
2016-12-02T11:35:26.035Z,101006
2016-12-02T11:36:27.374Z,101006
2016-12-02T11:37:27.398Z,101002
2016-12-02T11:38:27.455Z,101011
2016-12-02T11:39:27.553Z,101007
2016-12-02T11:40:27.714Z,101008
2016-12-02T11:41:26.334Z,101003
2016-12-02T11:42:30.990Z,101009
2016-12-02T11:43:28.497Z,101002
2016-12-02T11:44:28.932Z,101011
2016-12-02T11:45:27.894Z,101008
2016-12-02T11:46:27.973Z,101008
2016-12-02T11:47:28.097Z,101002
2016-12-02T11:48:29.559Z,101009
2016-12-02T11:49:30.771Z,101001
2016-12-02T11:50:29.844Z,101004
2016-12-02T11:51:30.462Z,101005
2016-12-02T11:52:29.658Z,101003
2016-12-02T11:53:28.737Z,101011
2016-12-02T11:54:28.902Z,101012
2016-12-02T11:55:27.800Z,101012
2016-12-02T11:56:28.505Z,101009
2016-12-02T11:57:27.688Z,101009
2016-12-02T11:58:29.274Z,101010
2016-12-02T11:59:28.677Z,101013
2016-12-02T12:00:29.633Z,101014
2016-12-02T12:01:29.445Z,101016
2016-12-02T12:02:30.169Z,101011
2016-12-02T12:03:28.875Z,101006
2016-12-02T12:04:28.956Z,101011
2016-12-02T12:05:28.950Z,101010
2016-12-02T12:06:29.999Z,101004
2016-12-02T12:07:30.711Z,101010
2016-12-02T12:08:29.179Z,101011
2016-12-02T12:09:30.385Z,101007
2016-12-02T12:10:31.155Z,101009
2016-12-02T12:11:29.031Z,101010
2016-12-02T12:12:29.290Z,101009
2016-12-02T12:13:29.346Z,101013
2016-12-02T12:14:34.748Z,101010
2016-12-02T12:15:33.350Z,101014
2016-12-02T12:16:32.061Z,101011
2016-12-02T12:17:30.201Z,101014
2016-12-02T12:18:31.103Z,101016
2016-12-02T12:19:28.824Z,101010
2016-12-02T12:20:28.963Z,101018
2016-12-02T12:21:29.094Z,101021
2016-12-02T12:22:28.553Z,101019
2016-12-02T12:23:28.624Z,101020
2016-12-02T12:24:29.100Z,101019
2016-12-02T12:25:29.238Z,101017
2016-12-02T12:26:30.124Z,101007
2016-12-02T12:27:28.764Z,101006
2016-12-02T12:28:30.832Z,101014
2016-12-02T12:29:28.945Z,101008
2016-12-02T12:30:28.949Z,101002
2016-12-02T12:31:29.031Z,101003
2016-12-02T12:32:30.384Z,101001
2016-12-02T12:33:29.038Z,100998
2016-12-02T12:34:30.029Z,101004